createdAt,value
2019-01-12T00:01:22.214Z,7.73
2019-01-12T00:03:51.254Z,8.58
2019-01-12T00:06:20.307Z,7.93
2019-01-12T00:08:49.938Z,7.67
2019-01-12T00:11:18.914Z,9.77
2019-01-12T00:13:48.108Z,7.83
2019-01-12T00:16:17.426Z,5.80
2019-01-12T00:18:46.272Z,7.15
2019-01-12T00:21:15.328Z,7.70
2019-01-12T00:23:44.250Z,7.12
2019-01-12T00:26:13.234Z,8.23
2019-01-12T00:28:42.062Z,7.15
2019-01-12T00:31:11.083Z,8.67
2019-01-12T00:33:40.191Z,8.98
2019-01-12T00:36:09.468Z,7.50
2019-01-12T00:38:38.488Z,9.90
2019-01-12T00:41:07.582Z,9.07
2019-01-12T00:43:36.485Z,6.92
2019-01-12T00:46:05.968Z,6.97
2019-01-12T00:48:35.230Z,9.18
2019-01-12T00:51:04.465Z,7.73
2019-01-12T00:53:33.399Z,7.90
2019-01-12T00:56:02.441Z,7.23
2019-01-12T00:58:31.456Z,6.05
2019-01-12T01:01:00.730Z,7.77
2019-01-12T01:03:29.743Z,7.60
2019-01-12T01:05:58.765Z,7.43
2019-01-12T01:08:27.859Z,6.08
2019-01-12T01:10:56.791Z,5.80
2019-01-12T01:13:25.724Z,7.00
2019-01-12T01:15:55.082Z,6.50
2019-01-12T01:18:24.043Z,5.95
2019-01-12T01:20:52.967Z,8.47
2019-01-12T01:23:21.946Z,7.58
2019-01-12T01:25:51.290Z,6.53
2019-01-12T01:28:20.216Z,4.50
2019-01-12T01:30:49.393Z,6.67
2019-01-12T01:33:18.259Z,6.25
2019-01-12T01:35:47.215Z,5.97
2019-01-12T01:38:16.134Z,7.20
2019-01-12T01:40:45.050Z,4.57
2019-01-12T01:43:14.435Z,5.55
2019-01-12T01:45:43.463Z,5.70
2019-01-12T01:48:12.628Z,5.67
2019-01-12T01:50:42.130Z,5.83
2019-01-12T01:53:11.149Z,6.08
2019-01-12T01:55:40.526Z,5.40
2019-01-12T01:58:09.588Z,4.33
2019-01-12T02:00:38.702Z,6.73
2019-01-12T02:03:07.709Z,4.00
2019-01-12T02:05:37.071Z,3.30
2019-01-12T02:08:05.943Z,3.92
2019-01-12T02:10:34.946Z,3.90
2019-01-12T02:13:04.235Z,3.95
2019-01-12T02:15:33.163Z,4.92
2019-01-12T02:18:02.092Z,4.35
2019-01-12T02:20:31.147Z,3.87
2019-01-12T02:23:00.402Z,5.90
2019-01-12T02:25:29.474Z,5.35
2019-01-12T02:27:58.682Z,5.28
2019-01-12T02:30:27.956Z,4.97
2019-01-12T02:32:56.868Z,5.28
2019-01-12T02:35:25.707Z,8.60
2019-01-12T02:37:54.632Z,5.08
2019-01-12T02:40:23.858Z,5.15
2019-01-12T02:43:48.863Z,5.40
2019-01-12T02:46:17.870Z,5.07
2019-01-12T02:48:47.293Z,4.65
2019-01-12T02:51:16.114Z,4.57
2019-01-12T02:53:44.987Z,4.53
2019-01-12T02:56:13.987Z,5.43
2019-01-12T02:58:42.985Z,4.70
2019-01-12T03:01:12.275Z,4.50
2019-01-12T03:03:41.413Z,5.97
2019-01-12T03:06:10.450Z,4.85
2019-01-12T03:08:39.464Z,4.37
2019-01-12T03:11:08.760Z,4.42
2019-01-12T03:13:37.729Z,5.47
2019-01-12T03:16:06.948Z,4.05
2019-01-12T03:18:35.790Z,6.15
2019-01-12T03:21:04.851Z,3.40
2019-01-12T03:23:33.852Z,3.77
2019-01-12T03:26:02.981Z,3.70
2019-01-12T03:28:32.170Z,4.03
2019-01-12T03:31:01.389Z,5.30
2019-01-12T03:33:30.491Z,4.58
2019-01-12T03:35:59.531Z,4.85
2019-01-12T03:38:28.478Z,4.58
2019-01-12T03:40:57.506Z,5.17
2019-01-12T03:43:26.436Z,4.62
2019-01-12T03:45:55.435Z,4.33
2019-01-12T03:48:24.363Z,5.20
2019-01-12T03:50:53.378Z,5.47
2019-01-12T03:53:22.383Z,5.62
2019-01-12T03:55:51.395Z,5.53
2019-01-12T03:58:20.259Z,5.65
2019-01-12T04:00:49.578Z,6.10
2019-01-12T04:03:18.661Z,6.12
2019-01-12T04:05:47.496Z,6.73
2019-01-12T04:08:16.402Z,6.22
2019-01-12T04:10:45.209Z,6.20
2019-01-12T04:13:14.159Z,7.03
2019-01-12T04:15:43.100Z,6.27
2019-01-12T04:18:12.179Z,6.10
2019-01-12T04:20:41.512Z,6.77
2019-01-12T04:23:10.519Z,6.72
2019-01-12T04:25:39.358Z,6.58
2019-01-12T04:28:08.331Z,5.75
2019-01-12T04:30:37.642Z,6.28
2019-01-12T04:33:06.607Z,7.00
2019-01-12T04:35:35.639Z,6.47
2019-01-12T04:38:04.641Z,6.62
2019-01-12T04:40:33.710Z,9.50
2019-01-12T04:43:03.287Z,7.65
2019-01-12T04:45:32.230Z,7.63
2019-01-12T04:48:01.483Z,7.22
2019-01-12T04:50:30.518Z,8.17
2019-01-12T04:52:59.472Z,8.65
2019-01-12T04:55:28.416Z,6.87
2019-01-12T04:57:57.555Z,8.13
2019-01-12T05:00:26.559Z,10.05
2019-01-12T05:02:55.791Z,8.75
2019-01-12T05:05:24.679Z,8.03
2019-01-12T05:07:54.491Z,8.43
2019-01-12T05:10:23.850Z,8.35
2019-01-12T05:12:52.818Z,8.38
2019-01-12T05:15:22.031Z,7.90
2019-01-12T05:17:51.492Z,8.03
2019-01-12T05:20:21.332Z,7.85
2019-01-12T05:22:50.334Z,7.20
2019-01-12T05:25:19.462Z,7.10
2019-01-12T05:27:48.499Z,7.03
2019-01-12T05:30:21.774Z,7.85
2019-01-12T05:32:51.172Z,8.50
2019-01-12T05:35:20.255Z,9.28
2019-01-12T05:37:49.387Z,9.15
2019-01-12T05:40:18.418Z,7.33
2019-01-12T05:42:47.549Z,7.80
2019-01-12T05:45:16.582Z,6.95
2019-01-12T05:47:45.531Z,7.97
2019-01-12T05:50:14.764Z,7.65
2019-01-12T05:52:43.761Z,6.60
2019-01-12T05:55:12.744Z,8.83
2019-01-12T05:57:41.959Z,7.25
2019-01-12T06:00:14.782Z,6.15
2019-01-12T06:02:43.870Z,6.80
2019-01-12T06:05:13.046Z,6.10
2019-01-12T06:07:41.943Z,6.87
2019-01-12T06:10:11.167Z,7.60
2019-01-12T06:12:40.274Z,6.45
2019-01-12T06:15:09.982Z,5.92
2019-01-12T06:17:39.007Z,6.90
2019-01-12T06:20:09.218Z,6.42
2019-01-12T06:22:38.396Z,8.43
2019-01-12T06:25:07.567Z,6.90
2019-01-12T06:27:36.898Z,9.50
2019-01-12T06:30:08.398Z,6.12
2019-01-12T06:32:37.321Z,7.83
2019-01-12T06:35:06.287Z,8.43
2019-01-12T06:37:35.323Z,6.47
2019-01-12T06:40:05.959Z,6.33
2019-01-12T06:42:34.892Z,6.08
2019-01-12T06:45:04.320Z,9.45
2019-01-12T06:47:33.163Z,5.55
2019-01-12T06:50:02.573Z,6.33
2019-01-12T06:52:31.492Z,7.37
2019-01-12T06:55:00.436Z,6.15
2019-01-12T06:57:29.623Z,4.93
2019-01-12T06:59:58.863Z,6.30
2019-01-12T07:02:28.101Z,6.60
2019-01-12T07:04:57.297Z,5.80
2019-01-12T07:07:26.501Z,5.40
2019-01-12T07:09:55.547Z,6.05
2019-01-12T07:12:24.698Z,5.40
2019-01-12T07:14:53.644Z,6.00
2019-01-12T07:17:22.598Z,5.45
2019-01-12T07:19:51.796Z,5.10
2019-01-12T07:22:20.871Z,6.27
2019-01-12T07:24:49.676Z,4.55
2019-01-12T07:27:18.838Z,4.57
2019-01-12T07:29:47.805Z,4.97
2019-01-12T07:32:17.055Z,6.03
2019-01-12T07:34:45.998Z,5.62
2019-01-12T07:37:15.226Z,5.73
2019-01-12T07:39:44.751Z,6.20
2019-01-12T07:42:13.755Z,6.10
2019-01-12T07:44:43.037Z,5.67
2019-01-12T07:47:11.959Z,6.67
2019-01-12T07:49:41.306Z,5.67
2019-01-12T07:52:10.659Z,6.13
2019-01-12T07:54:39.951Z,7.75
2019-01-12T07:57:08.796Z,5.30
2019-01-12T07:59:38.436Z,6.90
2019-01-12T08:02:07.459Z,5.33
2019-01-12T08:04:36.755Z,8.08
2019-01-12T08:07:05.972Z,7.83
2019-01-12T08:09:34.857Z,9.60
2019-01-12T08:12:03.847Z,9.67
2019-01-12T08:14:33.352Z,9.88
2019-01-12T08:17:02.270Z,9.90
2019-01-12T08:19:31.177Z,9.10
2019-01-12T08:22:00.131Z,8.10
2019-01-12T08:24:29.073Z,8.93
2019-01-12T08:26:58.102Z,9.30
2019-01-12T08:29:29.480Z,9.18
2019-01-12T08:31:58.436Z,10.35
2019-01-12T08:34:27.343Z,13.40
2019-01-12T08:36:56.666Z,10.63
2019-01-12T08:39:25.834Z,12.35
2019-01-12T08:41:54.814Z,13.03
2019-01-12T08:44:23.802Z,10.65
2019-01-12T08:46:52.727Z,12.15
2019-01-12T08:49:21.668Z,11.03
2019-01-12T08:51:51.037Z,13.90
2019-01-12T08:54:19.991Z,11.38
2019-01-12T08:56:48.960Z,11.47
2019-01-12T08:59:18.911Z,13.55
2019-01-12T09:01:48.135Z,10.97
2019-01-12T09:04:17.455Z,10.85
2019-01-12T09:06:46.398Z,11.18
2019-01-12T09:09:15.334Z,12.65
2019-01-12T09:11:44.264Z,13.67
2019-01-12T09:14:13.091Z,10.23
2019-01-12T09:16:42.343Z,12.23
2019-01-12T09:19:11.176Z,11.65
2019-01-12T09:21:40.386Z,11.43
2019-01-12T09:24:09.307Z,12.58
2019-01-12T09:26:44.718Z,11.20
2019-01-12T09:29:09.005Z,12.45
2019-01-12T09:31:38.544Z,12.43
2019-01-12T09:34:07.430Z,11.35
2019-01-12T09:36:36.500Z,11.10
2019-01-12T09:39:08.460Z,10.90
2019-01-12T09:41:37.519Z,12.82
2019-01-12T09:44:06.406Z,10.70
2019-01-12T09:46:35.712Z,13.30
2019-01-12T09:49:04.712Z,10.45
2019-01-12T09:51:33.871Z,9.08
2019-01-12T09:54:02.731Z,10.43
2019-01-12T09:56:31.671Z,11.27
2019-01-12T09:59:00.487Z,9.93
2019-01-12T10:01:30.077Z,9.40
2019-01-12T10:03:59.123Z,11.08
2019-01-12T10:06:27.943Z,11.50
2019-01-12T10:08:56.798Z,11.50
2019-01-12T10:11:26.211Z,9.70
2019-01-12T10:13:55.260Z,10.00
2019-01-12T10:16:24.655Z,10.20
2019-01-12T10:18:53.609Z,8.58
2019-01-12T10:21:22.540Z,9.73
2019-01-12T10:23:51.444Z,8.58
2019-01-12T10:26:20.343Z,9.68
2019-01-12T10:28:49.254Z,8.68
2019-01-12T10:31:18.122Z,7.33
2019-01-12T10:33:47.074Z,8.80
2019-01-12T10:36:15.999Z,9.73
2019-01-12T10:38:44.810Z,9.95
2019-01-12T10:41:13.904Z,10.23
2019-01-12T10:43:42.818Z,9.15
2019-01-12T10:46:11.826Z,7.47
2019-01-12T10:48:40.742Z,7.97
2019-01-12T10:51:09.809Z,10.07
2019-01-12T10:53:39.186Z,7.75
2019-01-12T10:56:08.231Z,9.50
2019-01-12T10:58:37.257Z,7.75
2019-01-12T11:01:06.287Z,7.70
2019-01-12T11:03:35.215Z,9.15
2019-01-12T11:06:04.419Z,6.43
2019-01-12T11:08:33.717Z,8.25
2019-01-12T11:11:02.707Z,9.67
2019-01-12T11:13:31.630Z,10.93
2019-01-12T11:16:00.575Z,8.67
2019-01-12T11:18:29.474Z,10.60
2019-01-12T11:20:58.498Z,8.65
2019-01-12T11:23:27.534Z,11.65
2019-01-12T11:25:56.402Z,9.97
2019-01-12T11:28:25.427Z,11.30
2019-01-12T11:30:54.444Z,11.05
2019-01-12T11:33:23.474Z,11.30
2019-01-12T11:35:52.575Z,10.08
2019-01-12T11:38:21.480Z,11.50
2019-01-12T11:40:50.334Z,9.50
2019-01-12T11:43:19.223Z,10.20
2019-01-12T11:45:50.675Z,10.47
2019-01-12T11:48:20.431Z,12.98
2019-01-12T11:50:49.451Z,13.83
2019-01-12T11:53:18.486Z,10.60
2019-01-12T11:55:47.507Z,12.17
2019-01-12T11:58:16.507Z,11.03
2019-01-12T12:00:45.622Z,12.35
2019-01-12T12:03:14.623Z,12.98
2019-01-12T12:05:43.635Z,12.47
2019-01-12T12:08:12.686Z,13.45
2019-01-12T12:10:41.690Z,11.30
2019-01-12T12:13:10.997Z,10.95
2019-01-12T12:15:40.092Z,9.83
2019-01-12T12:18:09.002Z,11.20
2019-01-12T12:20:38.388Z,10.33
2019-01-12T12:23:07.652Z,14.20
2019-01-12T12:25:36.638Z,10.90
2019-01-12T12:28:05.654Z,12.05
2019-01-12T12:30:35.049Z,9.63
2019-01-12T12:33:04.365Z,12.03
2019-01-12T12:35:37.583Z,10.53
2019-01-12T12:38:04.567Z,12.60
2019-01-12T12:40:33.959Z,8.40
2019-01-12T12:43:02.983Z,10.80
2019-01-12T12:45:33.806Z,10.60
2019-01-12T12:48:02.783Z,10.25
2019-01-12T12:50:31.907Z,13.25
2019-01-12T12:53:00.970Z,13.25
2019-01-12T12:55:29.928Z,10.93
2019-01-12T12:57:59.645Z,10.98
2019-01-12T13:00:30.862Z,10.60
2019-01-12T13:03:00.156Z,14.90
2019-01-12T13:05:29.307Z,10.40
2019-01-12T13:07:58.347Z,10.48
2019-01-12T13:10:29.934Z,8.55
2019-01-12T13:12:59.227Z,8.98
2019-01-12T13:15:28.123Z,11.17
2019-01-12T13:17:57.505Z,10.82
2019-01-12T13:20:26.608Z,10.97
2019-01-12T13:22:55.669Z,9.20
2019-01-12T13:25:24.691Z,8.38
2019-01-12T13:27:54.025Z,9.03
2019-01-12T13:30:24.928Z,10.08
2019-01-12T13:32:54.127Z,10.68
2019-01-12T13:35:23.222Z,10.23
2019-01-12T13:37:52.311Z,9.25
2019-01-12T13:40:23.570Z,9.28
2019-01-12T13:42:52.877Z,8.35
2019-01-12T13:45:22.903Z,8.60
2019-01-12T13:47:51.893Z,7.30
2019-01-12T13:50:23.133Z,9.70
2019-01-12T13:52:52.145Z,9.88
2019-01-12T13:55:21.904Z,6.40
2019-01-12T13:57:50.875Z,7.30
2019-01-12T14:00:31.567Z,9.25
2019-01-12T14:03:01.592Z,8.13
2019-01-12T14:05:30.795Z,7.33
2019-01-12T14:08:00.155Z,6.67
2019-01-12T14:10:29.126Z,9.77
2019-01-12T14:12:58.517Z,7.37
2019-01-12T14:15:27.530Z,7.33
2019-01-12T14:17:56.621Z,6.97
2019-01-12T14:20:30.768Z,6.70
2019-01-12T14:22:59.770Z,6.72
2019-01-12T14:25:28.825Z,7.70
2019-01-12T14:27:57.856Z,6.72
2019-01-12T14:30:26.909Z,7.00
2019-01-12T14:32:55.890Z,6.62
2019-01-12T14:35:25.091Z,5.55
2019-01-12T14:37:54.054Z,5.05
2019-01-12T14:40:23.407Z,4.83
2019-01-12T14:42:52.200Z,5.10
2019-01-12T14:45:24.041Z,4.83
2019-01-12T14:47:53.058Z,5.53
2019-01-12T14:50:22.196Z,4.00
2019-01-12T14:52:51.517Z,6.47
2019-01-12T14:55:20.553Z,5.72
2019-01-12T14:57:49.577Z,4.33
2019-01-12T15:00:28.827Z,3.27
2019-01-12T15:02:57.945Z,5.03
2019-01-12T15:05:36.211Z,3.90
2019-01-12T15:08:05.405Z,3.92
2019-01-12T15:10:34.472Z,4.00
2019-01-12T15:13:03.598Z,3.80
2019-01-12T15:15:32.649Z,3.30
2019-01-12T15:18:01.912Z,1.42
2019-01-12T15:20:31.414Z,3.03
2019-01-12T15:23:00.541Z,2.30
2019-01-12T15:25:29.791Z,1.70
2019-01-12T15:27:58.928Z,1.72
2019-01-12T15:30:29.874Z,1.83
2019-01-12T15:33:00.247Z,1.30
2019-01-12T15:35:31.399Z,1.80
2019-01-12T15:38:00.419Z,1.65
2019-01-12T15:40:29.375Z,2.47
2019-01-12T15:42:58.401Z,1.60
2019-01-12T15:45:27.452Z,1.17
2019-01-12T15:47:56.465Z,2.17
2019-01-12T15:50:26.504Z,2.05
2019-01-12T15:52:55.520Z,2.37
2019-01-12T15:55:24.659Z,1.42
2019-01-12T15:57:53.676Z,1.87
2019-01-12T16:00:24.897Z,1.70
2019-01-12T16:02:54.158Z,3.62
2019-01-12T16:05:23.447Z,1.60
2019-01-12T16:07:52.380Z,2.30
2019-01-12T16:10:21.328Z,1.82
2019-01-12T16:12:50.202Z,1.45
2019-01-12T16:15:21.196Z,2.37
2019-01-12T16:17:50.067Z,1.50
2019-01-12T16:20:21.535Z,2.00
2019-01-12T16:22:50.795Z,1.80
2019-01-12T16:25:19.644Z,1.67
2019-01-12T16:27:48.578Z,2.17
2019-01-12T16:30:19.042Z,2.12
2019-01-12T16:32:48.045Z,2.30
2019-01-12T16:35:17.332Z,1.92
2019-01-12T16:37:46.389Z,1.75
2019-01-12T16:40:17.483Z,2.30
2019-01-12T16:42:46.513Z,3.20
2019-01-12T16:45:16.127Z,2.30
2019-01-12T16:47:45.515Z,2.40
2019-01-12T16:50:15.135Z,3.10
2019-01-12T16:52:44.171Z,2.33
2019-01-12T16:55:14.336Z,2.60
2019-01-12T16:57:43.362Z,2.87
2019-01-12T17:00:21.127Z,2.87
2019-01-12T17:02:50.136Z,2.65
2019-01-12T17:05:18.947Z,3.62
2019-01-12T17:07:47.935Z,2.83
2019-01-12T17:10:18.457Z,2.83
2019-01-12T17:12:47.770Z,3.00
2019-01-12T17:15:18.187Z,2.70
2019-01-12T17:17:47.211Z,2.90
2019-01-12T17:20:21.343Z,3.52
2019-01-12T17:22:51.294Z,3.00
2019-01-12T17:25:20.287Z,3.40
2019-01-12T17:27:49.363Z,3.47
2019-01-12T17:30:19.998Z,4.95
2019-01-12T17:32:49.137Z,4.05
2019-01-12T17:35:18.150Z,3.95
2019-01-12T17:37:47.995Z,3.55
2019-01-12T17:40:17.427Z,4.40
2019-01-12T17:42:46.477Z,3.65
2019-01-12T17:45:20.277Z,4.22
2019-01-12T17:47:49.223Z,4.65
2019-01-12T17:50:19.971Z,4.55
2019-01-12T17:52:49.079Z,4.42
2019-01-12T17:55:19.799Z,4.45
2019-01-12T17:57:48.840Z,6.58
2019-01-12T18:00:26.707Z,18.02
2019-01-12T18:02:55.724Z,20.43
2019-01-12T18:05:24.798Z,16.35
2019-01-12T18:07:53.737Z,73.02
2019-01-12T18:10:22.626Z,20.00
2019-01-12T18:12:51.841Z,13.48
2019-01-12T18:15:20.852Z,8.95
2019-01-12T18:17:49.838Z,6.58
2019-01-12T18:20:18.833Z,7.42
2019-01-12T18:22:47.792Z,7.17
2019-01-12T18:25:17.092Z,8.23
2019-01-12T18:27:46.337Z,6.90
2019-01-12T18:30:18.085Z,7.37
2019-01-12T18:32:47.122Z,6.85
2019-01-12T18:35:16.079Z,7.12
2019-01-12T18:37:45.274Z,6.95
2019-01-12T18:40:15.855Z,6.28
2019-01-12T18:42:44.966Z,8.33
2019-01-12T18:45:15.774Z,7.50
2019-01-12T18:47:44.730Z,8.05
2019-01-12T18:50:18.807Z,7.60
2019-01-12T18:52:47.930Z,8.10
2019-01-12T18:55:17.164Z,7.15
2019-01-12T18:57:46.327Z,6.17
2019-01-12T19:00:23.263Z,7.47
2019-01-12T19:02:52.681Z,6.30
2019-01-12T19:05:21.818Z,4.90
2019-01-12T19:07:51.006Z,6.83
2019-01-12T19:10:19.984Z,5.42
2019-01-12T19:12:49.021Z,5.70
2019-01-12T19:15:20.386Z,6.87
2019-01-12T19:17:49.475Z,4.03
2019-01-12T19:20:18.491Z,4.28
2019-01-12T19:22:47.708Z,3.83
2019-01-12T19:25:16.945Z,4.72
2019-01-12T19:27:46.227Z,4.28
2019-01-12T19:30:17.283Z,3.20
2019-01-12T19:32:46.320Z,3.27
2019-01-12T19:35:16.206Z,3.95
2019-01-12T19:37:45.465Z,2.37
2019-01-12T19:40:16.557Z,3.17
2019-01-12T19:42:45.936Z,2.40
2019-01-12T19:45:15.769Z,3.10
2019-01-12T19:47:44.754Z,2.77
2019-01-12T19:50:16.268Z,3.00
2019-01-12T19:52:45.251Z,2.62
2019-01-12T19:55:14.319Z,2.92
2019-01-12T19:57:43.430Z,2.17
2019-01-12T20:00:18.056Z,2.35
2019-01-12T20:02:47.025Z,2.05
2019-01-12T20:05:16.123Z,1.77
2019-01-12T20:07:45.119Z,2.62
2019-01-12T20:10:15.547Z,1.62
2019-01-12T20:12:44.878Z,2.37
2019-01-12T20:15:16.849Z,3.02
2019-01-12T20:17:45.866Z,2.33
2019-01-12T20:20:15.294Z,2.58
2019-01-12T20:22:44.336Z,2.58
2019-01-12T20:25:16.508Z,2.55
2019-01-12T20:27:45.427Z,2.22
2019-01-12T20:30:31.444Z,3.12
2019-01-12T20:33:23.512Z,3.08
2019-01-12T20:36:29.235Z,3.20
2019-01-12T20:39:33.502Z,2.10
2019-01-12T20:42:41.658Z,2.40
2019-01-12T20:45:41.793Z,6.10
2019-01-12T20:48:34.138Z,3.33
2019-01-12T20:51:43.379Z,3.65
2019-01-12T20:54:30.327Z,5.58
2019-01-12T20:57:32.819Z,5.20
2019-01-12T21:00:22.370Z,5.92
2019-01-12T21:03:41.882Z,5.37
2019-01-12T21:06:29.187Z,7.10
2019-01-12T21:09:29.959Z,4.00
2019-01-12T21:12:41.261Z,6.07
2019-01-12T21:15:18.390Z,7.20
2019-01-12T21:17:47.330Z,5.33
2019-01-12T21:20:16.340Z,6.00
2019-01-12T21:22:45.365Z,3.98
2019-01-12T21:25:14.589Z,6.12
2019-01-12T21:27:43.797Z,5.53
2019-01-12T21:30:15.393Z,3.90
2019-01-12T21:32:44.399Z,4.72
2019-01-12T21:35:13.480Z,7.22
2019-01-12T21:37:42.401Z,4.50
2019-01-12T21:40:11.528Z,6.05
2019-01-12T21:42:40.458Z,5.10
2019-01-12T21:45:11.440Z,5.00
2019-01-12T21:47:40.907Z,5.42
2019-01-12T21:50:12.390Z,3.42
2019-01-12T21:52:41.584Z,3.60
2019-01-12T21:55:10.613Z,6.40
2019-01-12T21:57:39.588Z,4.17
2019-01-12T22:00:12.579Z,4.75
2019-01-12T22:02:41.674Z,4.33
2019-01-12T22:05:11.613Z,5.28
2019-01-12T22:07:40.886Z,4.42
2019-01-12T22:10:18.839Z,3.50
2019-01-12T22:12:42.811Z,3.60
2019-01-12T22:15:12.506Z,2.30
2019-01-12T22:17:41.516Z,3.30
2019-01-12T22:20:13.276Z,3.00
2019-01-12T22:22:42.316Z,5.15
2019-01-12T22:25:11.332Z,5.37
2019-01-12T22:27:40.475Z,5.72
2019-01-12T22:30:13.243Z,4.17
2019-01-12T22:32:42.352Z,4.78
2019-01-12T22:35:11.362Z,3.37
2019-01-12T22:37:40.665Z,4.90
2019-01-12T22:40:14.079Z,5.08
2019-01-12T22:42:42.894Z,3.85
2019-01-12T22:45:11.929Z,4.67
2019-01-12T22:47:40.883Z,3.33
2019-01-12T22:50:11.586Z,5.15
2019-01-12T22:52:40.701Z,7.05
2019-01-12T22:55:11.040Z,8.10
2019-01-12T22:57:39.926Z,6.17
2019-01-12T23:00:47.351Z,6.30
2019-01-12T23:03:16.857Z,5.72
2019-01-12T23:05:45.822Z,5.57
2019-01-12T23:08:14.884Z,10.08
2019-01-12T23:10:43.880Z,5.73
2019-01-12T23:13:12.896Z,6.70
2019-01-12T23:15:41.782Z,6.67
2019-01-12T23:18:10.755Z,7.33
2019-01-12T23:20:39.755Z,4.40
2019-01-12T23:23:08.807Z,7.92
2019-01-12T23:25:37.731Z,6.57
2019-01-12T23:28:06.739Z,9.13
2019-01-12T23:30:36.423Z,5.47
2019-01-12T23:33:05.655Z,7.97
2019-01-12T23:35:34.922Z,5.78
2019-01-12T23:38:04.854Z,7.97
2019-01-12T23:40:33.850Z,6.80
2019-01-12T23:43:02.923Z,6.78
2019-01-12T23:45:31.954Z,8.47
2019-01-12T23:48:01.528Z,7.03
2019-01-12T23:50:30.393Z,6.43
2019-01-12T23:52:59.335Z,8.28
2019-01-12T23:55:28.158Z,5.55
2019-01-12T23:57:57.210Z,6.55
